createdAt,value
2023-03-29T00:03:36.125Z,183.10
2023-03-29T00:13:40.229Z,191.13
2023-03-29T00:23:45.481Z,184.53
2023-03-29T00:33:49.247Z,186.80
2023-03-29T00:43:57.417Z,189.27
2023-03-29T00:54:05.191Z,185.90
2023-03-29T01:04:19.658Z,186.17
2023-03-29T01:14:30.534Z,184.57
2023-03-29T01:24:50.608Z,188.23
2023-03-29T01:35:01.202Z,188.17
2023-03-29T01:45:15.080Z,185.43
2023-03-29T01:55:25.537Z,182.97
2023-03-29T02:05:31.849Z,188.80
2023-03-29T02:15:37.448Z,194.23
2023-03-29T02:25:41.628Z,185.60
2023-03-29T02:35:54.632Z,184.80
2023-03-29T02:45:59.428Z,195.83
2023-03-29T02:56:07.591Z,199.57
2023-03-29T03:06:12.247Z,191.93
2023-03-29T03:16:17.453Z,181.27
2023-03-29T03:26:21.178Z,185.60
2023-03-29T03:36:29.219Z,184.13
2023-03-29T03:46:33.966Z,179.97
2023-03-29T03:56:39.848Z,175.67
2023-03-29T04:06:44.249Z,178.87
2023-03-29T04:17:15.814Z,177.47
2023-03-29T04:27:40.153Z,173.93
2023-03-29T04:38:04.534Z,169.93
2023-03-29T04:48:08.890Z,170.10
2023-03-29T04:58:18.549Z,167.17
2023-03-29T05:08:24.477Z,174.17
2023-03-29T05:18:56.175Z,168.80
2023-03-29T05:29:01.608Z,169.27
2023-03-29T05:39:07.537Z,172.20
2023-03-29T05:49:12.579Z,173.73
2023-03-29T05:59:30.425Z,168.97
2023-03-29T06:09:34.313Z,178.47
2023-03-29T06:19:42.595Z,186.20
2023-03-29T06:29:46.513Z,192.20
2023-03-29T06:39:53.431Z,195.43
2023-03-29T06:50:02.657Z,201.93
2023-03-29T07:00:18.389Z,198.53
2023-03-29T07:10:47.698Z,203.13
2023-03-29T07:21:12.966Z,208.47
2023-03-29T07:31:17.737Z,196.30
2023-03-29T07:41:28.453Z,204.33
2023-03-29T07:51:38.235Z,213.40
2023-03-29T08:01:49.033Z,207.13
2023-03-29T08:12:06.747Z,211.50
2023-03-29T08:22:15.029Z,206.90
2023-03-29T08:32:39.550Z,204.30
2023-03-29T08:43:12.913Z,210.77
2023-03-29T08:53:41.843Z,203.27
2023-03-29T09:04:06.099Z,209.33
2023-03-29T09:14:53.935Z,209.90
2023-03-29T09:25:13.065Z,205.57
2023-03-29T09:35:27.258Z,204.07
2023-03-29T09:45:33.529Z,211.63
2023-03-29T09:55:40.807Z,211.15
2023-03-29T10:06:09.765Z,207.60
2023-03-29T10:16:22.829Z,204.05
2023-03-29T10:26:33.184Z,197.02
2023-03-29T10:36:37.486Z,198.10
2023-03-29T10:46:45.379Z,194.48
2023-03-29T10:56:53.824Z,201.20
2023-03-29T11:07:34.665Z,194.27
2023-03-29T11:17:54.154Z,190.10
2023-03-29T11:28:07.745Z,188.55
2023-03-29T11:38:23.939Z,188.00
2023-03-29T11:48:35.135Z,190.18
2023-03-29T11:58:43.764Z,188.05
2023-03-29T12:08:56.847Z,183.18
2023-03-29T12:19:06.373Z,187.57
2023-03-29T12:29:29.721Z,185.75
2023-03-29T12:39:34.100Z,179.38
2023-03-29T12:50:00.964Z,186.55
2023-03-29T13:00:20.525Z,184.18
2023-03-29T13:10:42.246Z,189.73
2023-03-29T13:20:52.553Z,197.68
2023-03-29T13:31:05.626Z,200.85
2023-03-29T13:41:29.677Z,201.68
2023-03-29T13:51:45.221Z,222.57
2023-03-29T14:01:54.701Z,219.87
2023-03-29T14:12:02.596Z,219.53
2023-03-29T14:22:13.990Z,210.23
2023-03-29T14:32:21.612Z,206.67
2023-03-29T14:42:29.125Z,209.57
2023-03-29T14:52:34.976Z,206.53
2023-03-29T15:02:39.734Z,202.73
2023-03-29T15:12:46.378Z,202.20
2023-03-29T15:23:03.736Z,202.43
2023-03-29T15:33:34.401Z,205.83
2023-03-29T15:43:38.328Z,209.23
2023-03-29T15:53:44.010Z,204.90
2023-03-29T16:03:48.262Z,205.20
2023-03-29T16:13:53.664Z,207.43
2023-03-29T16:23:57.365Z,199.40
2023-03-29T16:34:03.642Z,206.47
2023-03-29T16:44:07.909Z,200.57
2023-03-29T16:54:12.991Z,203.50
2023-03-29T17:04:17.531Z,203.70
2023-03-29T17:14:22.764Z,201.43
2023-03-29T17:24:26.637Z,201.57
2023-03-29T17:34:33.027Z,195.43
2023-03-29T17:44:36.859Z,196.03
2023-03-29T17:54:41.795Z,198.40
2023-03-29T18:04:45.542Z,197.67
2023-03-29T18:14:51.076Z,199.83
2023-03-29T18:24:55.053Z,200.70
2023-03-29T18:35:02.357Z,200.13
2023-03-29T18:45:07.250Z,204.23
2023-03-29T18:55:12.610Z,205.23
2023-03-29T19:05:16.377Z,197.17
2023-03-29T19:15:22.012Z,194.43
2023-03-29T19:25:25.919Z,200.80
2023-03-29T19:35:31.095Z,198.23
2023-03-29T19:45:34.726Z,192.97
2023-03-29T19:55:42.550Z,191.50
2023-03-29T20:05:47.452Z,197.80
2023-03-29T20:15:52.764Z,199.63
2023-03-29T20:25:57.229Z,199.97
2023-03-29T20:36:02.322Z,192.70
2023-03-29T20:46:06.108Z,182.63
2023-03-29T20:56:11.023Z,185.53
2023-03-29T21:06:15.166Z,185.67
2023-03-29T21:16:20.636Z,187.20
2023-03-29T21:26:24.408Z,185.50
2023-03-29T21:36:29.713Z,184.83
2023-03-29T21:46:33.382Z,182.17
2023-03-29T21:56:38.833Z,183.50
2023-03-29T22:06:42.663Z,186.87
2023-03-29T22:16:47.942Z,181.97
2023-03-29T22:26:51.588Z,188.27
2023-03-29T22:36:56.689Z,184.73
2023-03-29T22:47:00.645Z,179.43
2023-03-29T22:57:05.753Z,179.33
2023-03-29T23:07:09.527Z,180.90
2023-03-29T23:17:19.373Z,182.70
2023-03-29T23:27:23.061Z,182.93
2023-03-29T23:37:28.340Z,178.63
2023-03-29T23:47:32.008Z,189.27
2023-03-29T23:57:37.336Z,182.73
